sensor_id;sensor_type;location;lat;lon;timestamp;temperature;humidity
45803;DHT22;31504;51.716;9.184;2023-01-15T00:00:06;20.80;57.20
45803;DHT22;31504;51.716;9.184;2023-01-15T00:09:21;20.70;56.40
45803;DHT22;31504;51.716;9.184;2023-01-15T00:12:21;20.70;56.10
45803;DHT22;31504;51.716;9.184;2023-01-15T00:15:22;20.70;55.90
45803;DHT22;31504;51.716;9.184;2023-01-15T00:18:22;20.70;55.60
45803;DHT22;31504;51.716;9.184;2023-01-15T00:21:23;20.70;55.40
45803;DHT22;31504;51.716;9.184;2023-01-15T00:24:24;20.70;55.10
45803;DHT22;31504;51.716;9.184;2023-01-15T00:27:43;20.70;55.00
45803;DHT22;31504;51.716;9.184;2023-01-15T00:30:45;20.70;54.80
45803;DHT22;31504;51.716;9.184;2023-01-15T00:33:45;20.70;54.60
45803;DHT22;31504;51.716;9.184;2023-01-15T00:36:46;20.70;54.50
45803;DHT22;31504;51.716;9.184;2023-01-15T00:39:46;20.70;54.50
45803;DHT22;31504;51.716;9.184;2023-01-15T00:42:47;20.70;54.30
45803;DHT22;31504;51.716;9.184;2023-01-15T00:45:47;20.70;54.10
45803;DHT22;31504;51.716;9.184;2023-01-15T00:48:48;20.60;54.00
45803;DHT22;31504;51.716;9.184;2023-01-15T00:51:48;20.70;53.90
45803;DHT22;31504;51.716;9.184;2023-01-15T00:54:50;20.70;53.80
45803;DHT22;31504;51.716;9.184;2023-01-15T00:57:50;20.60;53.70
45803;DHT22;31504;51.716;9.184;2023-01-15T01:00:51;20.70;53.60
45803;DHT22;31504;51.716;9.184;2023-01-15T01:03:52;20.60;53.60
45803;DHT22;31504;51.716;9.184;2023-01-15T01:06:52;20.60;53.40
45803;DHT22;31504;51.716;9.184;2023-01-15T01:09:53;20.60;53.20
45803;DHT22;31504;51.716;9.184;2023-01-15T01:12:54;20.60;53.00
45803;DHT22;31504;51.716;9.184;2023-01-15T01:15:55;20.70;53.50
45803;DHT22;31504;51.716;9.184;2023-01-15T01:18:56;20.60;52.70
45803;DHT22;31504;51.716;9.184;2023-01-15T01:21:57;20.70;52.60
45803;DHT22;31504;51.716;9.184;2023-01-15T01:24:58;20.70;52.50
45803;DHT22;31504;51.716;9.184;2023-01-15T01:27:58;20.70;52.40
45803;DHT22;31504;51.716;9.184;2023-01-15T01:30:58;20.70;52.40
45803;DHT22;31504;51.716;9.184;2023-01-15T01:33:59;20.60;52.20
45803;DHT22;31504;51.716;9.184;2023-01-15T01:36:59;20.60;52.10
45803;DHT22;31504;51.716;9.184;2023-01-15T01:40:00;20.70;52.10
45803;DHT22;31504;51.716;9.184;2023-01-15T01:43:00;20.60;51.90
45803;DHT22;31504;51.716;9.184;2023-01-15T01:46:01;20.60;51.90
45803;DHT22;31504;51.716;9.184;2023-01-15T01:49:11;20.60;51.70
45803;DHT22;31504;51.716;9.184;2023-01-15T01:52:14;20.60;51.80
45803;DHT22;31504;51.716;9.184;2023-01-15T01:55:17;20.60;51.70
45803;DHT22;31504;51.716;9.184;2023-01-15T01:58:17;20.60;51.70
45803;DHT22;31504;51.716;9.184;2023-01-15T02:01:20;20.60;51.60
45803;DHT22;31504;51.716;9.184;2023-01-15T02:04:21;20.60;51.50
45803;DHT22;31504;51.716;9.184;2023-01-15T02:07:24;20.60;51.40
45803;DHT22;31504;51.716;9.184;2023-01-15T02:10:25;20.60;51.30
45803;DHT22;31504;51.716;9.184;2023-01-15T02:13:34;20.60;51.10
45803;DHT22;31504;51.716;9.184;2023-01-15T02:16:41;20.60;51.10
45803;DHT22;31504;51.716;9.184;2023-01-15T02:19:56;20.60;51.00
45803;DHT22;31504;51.716;9.184;2023-01-15T02:23:10;20.60;50.90
45803;DHT22;31504;51.716;9.184;2023-01-15T02:29:19;20.60;50.80
45803;DHT22;31504;51.716;9.184;2023-01-15T02:32:26;20.60;50.70
45803;DHT22;31504;51.716;9.184;2023-01-15T02:35:28;20.60;51.30
45803;DHT22;31504;51.716;9.184;2023-01-15T02:38:31;20.60;50.80
45803;DHT22;31504;51.716;9.184;2023-01-15T02:41:34;20.60;50.60
45803;DHT22;31504;51.716;9.184;2023-01-15T02:44:37;20.60;50.50
45803;DHT22;31504;51.716;9.184;2023-01-15T02:47:39;20.60;50.60
45803;DHT22;31504;51.716;9.184;2023-01-15T02:50:43;20.50;50.50
45803;DHT22;31504;51.716;9.184;2023-01-15T02:53:45;20.50;50.40
45803;DHT22;31504;51.716;9.184;2023-01-15T02:56:47;20.50;50.40
45803;DHT22;31504;51.716;9.184;2023-01-15T02:59:48;20.50;50.30
45803;DHT22;31504;51.716;9.184;2023-01-15T03:02:57;20.50;50.30
45803;DHT22;31504;51.716;9.184;2023-01-15T03:06:04;20.50;50.20
45803;DHT22;31504;51.716;9.184;2023-01-15T03:09:07;20.50;50.10
45803;DHT22;31504;51.716;9.184;2023-01-15T03:15:09;20.60;50.00
45803;DHT22;31504;51.716;9.184;2023-01-15T03:18:11;20.60;49.90
45803;DHT22;31504;51.716;9.184;2023-01-15T03:21:15;20.60;49.80
45803;DHT22;31504;51.716;9.184;2023-01-15T03:24:22;20.60;49.90
45803;DHT22;31504;51.716;9.184;2023-01-15T03:27:23;20.50;49.70
45803;DHT22;31504;51.716;9.184;2023-01-15T03:30:24;20.50;49.70
45803;DHT22;31504;51.716;9.184;2023-01-15T03:33:25;20.60;49.70
45803;DHT22;31504;51.716;9.184;2023-01-15T03:36:27;20.60;49.60
45803;DHT22;31504;51.716;9.184;2023-01-15T03:39:27;20.50;49.60
45803;DHT22;31504;51.716;9.184;2023-01-15T03:45:30;20.50;49.50
45803;DHT22;31504;51.716;9.184;2023-01-15T03:48:38;20.50;49.50
45803;DHT22;31504;51.716;9.184;2023-01-15T03:51:41;20.50;49.40
45803;DHT22;31504;51.716;9.184;2023-01-15T03:54:47;20.50;49.40
45803;DHT22;31504;51.716;9.184;2023-01-15T03:57:59;20.50;49.50
45803;DHT22;31504;51.716;9.184;2023-01-15T04:01:02;20.50;49.40
45803;DHT22;31504;51.716;9.184;2023-01-15T04:04:02;20.50;49.40
45803;DHT22;31504;51.716;9.184;2023-01-15T04:07:04;20.50;49.30
45803;DHT22;31504;51.716;9.184;2023-01-15T04:10:06;20.50;49.30
45803;DHT22;31504;51.716;9.184;2023-01-15T04:13:07;20.50;49.20
45803;DHT22;31504;51.716;9.184;2023-01-15T04:16:07;20.50;49.10
45803;DHT22;31504;51.716;9.184;2023-01-15T04:19:08;20.50;49.10
45803;DHT22;31504;51.716;9.184;2023-01-15T04:22:09;20.50;49.10
45803;DHT22;31504;51.716;9.184;2023-01-15T04:25:10;20.50;49.10
45803;DHT22;31504;51.716;9.184;2023-01-15T04:28:11;20.50;49.00
45803;DHT22;31504;51.716;9.184;2023-01-15T04:31:12;20.50;49.00
45803;DHT22;31504;51.716;9.184;2023-01-15T04:34:12;20.50;48.90
45803;DHT22;31504;51.716;9.184;2023-01-15T04:37:13;20.50;48.90
45803;DHT22;31504;51.716;9.184;2023-01-15T04:40:14;20.50;48.90
45803;DHT22;31504;51.716;9.184;2023-01-15T04:43:34;20.50;48.90
45803;DHT22;31504;51.716;9.184;2023-01-15T04:46:54;20.50;48.80
45803;DHT22;31504;51.716;9.184;2023-01-15T04:49:54;20.50;48.70
45803;DHT22;31504;51.716;9.184;2023-01-15T04:52:55;20.50;48.80
45803;DHT22;31504;51.716;9.184;2023-01-15T04:56:02;20.50;48.70
45803;DHT22;31504;51.716;9.184;2023-01-15T04:59:03;20.50;48.70
45803;DHT22;31504;51.716;9.184;2023-01-15T05:02:03;20.40;48.80
45803;DHT22;31504;51.716;9.184;2023-01-15T05:05:04;20.40;48.70
45803;DHT22;31504;51.716;9.184;2023-01-15T05:08:04;20.50;48.70
45803;DHT22;31504;51.716;9.184;2023-01-15T05:11:05;20.40;48.60
45803;DHT22;31504;51.716;9.184;2023-01-15T05:14:06;20.50;48.60
45803;DHT22;31504;51.716;9.184;2023-01-15T05:17:06;20.50;48.50
45803;DHT22;31504;51.716;9.184;2023-01-15T05:20:07;20.50;48.40
45803;DHT22;31504;51.716;9.184;2023-01-15T05:23:07;20.50;48.40
45803;DHT22;31504;51.716;9.184;2023-01-15T05:26:08;20.50;48.40
45803;DHT22;31504;51.716;9.184;2023-01-15T05:29:09;20.50;48.30
45803;DHT22;31504;51.716;9.184;2023-01-15T05:32:09;20.50;48.30
45803;DHT22;31504;51.716;9.184;2023-01-15T05:35:10;20.50;48.30
45803;DHT22;31504;51.716;9.184;2023-01-15T05:38:10;20.50;48.30
45803;DHT22;31504;51.716;9.184;2023-01-15T05:41:12;20.50;48.30
45803;DHT22;31504;51.716;9.184;2023-01-15T05:44:31;20.50;48.30
45803;DHT22;31504;51.716;9.184;2023-01-15T05:47:31;20.50;48.20
45803;DHT22;31504;51.716;9.184;2023-01-15T05:50:32;20.50;48.20
45803;DHT22;31504;51.716;9.184;2023-01-15T05:53:32;20.50;48.20
45803;DHT22;31504;51.716;9.184;2023-01-15T05:56:34;20.40;48.20
45803;DHT22;31504;51.716;9.184;2023-01-15T05:59:35;20.40;48.20
45803;DHT22;31504;51.716;9.184;2023-01-15T06:02:35;20.40;48.20
45803;DHT22;31504;51.716;9.184;2023-01-15T06:08:39;20.40;48.10
45803;DHT22;31504;51.716;9.184;2023-01-15T06:11:40;20.40;48.00
45803;DHT22;31504;51.716;9.184;2023-01-15T06:14:40;20.40;48.00
45803;DHT22;31504;51.716;9.184;2023-01-15T06:17:41;20.40;47.90
45803;DHT22;31504;51.716;9.184;2023-01-15T06:20:41;20.40;47.90
45803;DHT22;31504;51.716;9.184;2023-01-15T06:23:42;20.50;47.80
45803;DHT22;31504;51.716;9.184;2023-01-15T06:26:42;20.50;47.80
45803;DHT22;31504;51.716;9.184;2023-01-15T06:29:43;20.50;47.80
45803;DHT22;31504;51.716;9.184;2023-01-15T06:32:43;20.50;47.70
45803;DHT22;31504;51.716;9.184;2023-01-15T06:35:44;20.40;47.70
45803;DHT22;31504;51.716;9.184;2023-01-15T06:38:44;20.40;47.70
45803;DHT22;31504;51.716;9.184;2023-01-15T06:41:44;20.40;48.30
45803;DHT22;31504;51.716;9.184;2023-01-15T06:45:04;20.40;47.70
45803;DHT22;31504;51.716;9.184;2023-01-15T06:48:23;20.40;47.70
45803;DHT22;31504;51.716;9.184;2023-01-15T06:51:24;20.40;47.70
45803;DHT22;31504;51.716;9.184;2023-01-15T06:54:25;20.40;47.70
45803;DHT22;31504;51.716;9.184;2023-01-15T06:57:25;20.40;47.70
45803;DHT22;31504;51.716;9.184;2023-01-15T07:00:25;20.40;47.70
45803;DHT22;31504;51.716;9.184;2023-01-15T07:03:26;20.40;47.70
45803;DHT22;31504;51.716;9.184;2023-01-15T07:06:26;20.40;47.70
45803;DHT22;31504;51.716;9.184;2023-01-15T07:09:27;20.40;47.60
45803;DHT22;31504;51.716;9.184;2023-01-15T07:12:27;20.40;47.50
45803;DHT22;31504;51.716;9.184;2023-01-15T07:15:28;20.40;47.50
45803;DHT22;31504;51.716;9.184;2023-01-15T07:18:29;20.40;47.50
45803;DHT22;31504;51.716;9.184;2023-01-15T07:21:30;20.40;47.50
45803;DHT22;31504;51.716;9.184;2023-01-15T07:24:30;20.40;47.50
45803;DHT22;31504;51.716;9.184;2023-01-15T07:27:31;20.40;47.50
45803;DHT22;31504;51.716;9.184;2023-01-15T07:30:31;20.40;47.40
45803;DHT22;31504;51.716;9.184;2023-01-15T07:33:32;20.50;47.50
45803;DHT22;31504;51.716;9.184;2023-01-15T07:36:32;20.50;47.50
45803;DHT22;31504;51.716;9.184;2023-01-15T07:39:33;20.50;47.50
45803;DHT22;31504;51.716;9.184;2023-01-15T07:42:33;20.50;47.60
45803;DHT22;31504;51.716;9.184;2023-01-15T07:45:52;20.50;47.60
45803;DHT22;31504;51.716;9.184;2023-01-15T07:49:12;20.50;47.60
45803;DHT22;31504;51.716;9.184;2023-01-15T07:52:31;20.50;47.90
45803;DHT22;31504;51.716;9.184;2023-01-15T07:55:31;20.50;48.10
45803;DHT22;31504;51.716;9.184;2023-01-15T07:58:33;20.50;48.10
45803;DHT22;31504;51.716;9.184;2023-01-15T08:01:34;20.50;48.00
45803;DHT22;31504;51.716;9.184;2023-01-15T08:04:34;20.40;48.00
45803;DHT22;31504;51.716;9.184;2023-01-15T08:07:36;20.50;48.00
45803;DHT22;31504;51.716;9.184;2023-01-15T08:10:36;20.50;48.00
45803;DHT22;31504;51.716;9.184;2023-01-15T08:13:57;20.50;48.10
45803;DHT22;31504;51.716;9.184;2023-01-15T08:17:16;20.50;48.10
45803;DHT22;31504;51.716;9.184;2023-01-15T08:20:17;20.50;48.10
45803;DHT22;31504;51.716;9.184;2023-01-15T08:23:18;20.60;48.20
45803;DHT22;31504;51.716;9.184;2023-01-15T08:26:18;20.50;48.10
45803;DHT22;31504;51.716;9.184;2023-01-15T08:29:19;20.60;48.20
45803;DHT22;31504;51.716;9.184;2023-01-15T08:32:20;20.60;48.10
45803;DHT22;31504;51.716;9.184;2023-01-15T08:35:20;20.60;48.20
45803;DHT22;31504;51.716;9.184;2023-01-15T08:38:21;20.50;48.20
45803;DHT22;31504;51.716;9.184;2023-01-15T08:41:21;20.60;48.20
45803;DHT22;31504;51.716;9.184;2023-01-15T08:44:22;20.60;48.20
45803;DHT22;31504;51.716;9.184;2023-01-15T08:47:23;20.60;48.10
45803;DHT22;31504;51.716;9.184;2023-01-15T08:50:23;20.60;48.10
45803;DHT22;31504;51.716;9.184;2023-01-15T08:53:23;20.60;48.20
45803;DHT22;31504;51.716;9.184;2023-01-15T08:56:24;20.50;48.80
45803;DHT22;31504;51.716;9.184;2023-01-15T08:59:24;20.60;48.30
45803;DHT22;31504;51.716;9.184;2023-01-15T09:02:25;20.60;48.20
45803;DHT22;31504;51.716;9.184;2023-01-15T09:05:26;20.60;48.20
45803;DHT22;31504;51.716;9.184;2023-01-15T09:08:27;20.50;48.20
45803;DHT22;31504;51.716;9.184;2023-01-15T09:11:28;20.50;48.30
45803;DHT22;31504;51.716;9.184;2023-01-15T09:14:29;20.60;48.50
45803;DHT22;31504;51.716;9.184;2023-01-15T09:17:29;20.60;48.50
45803;DHT22;31504;51.716;9.184;2023-01-15T09:20:30;20.60;48.60
45803;DHT22;31504;51.716;9.184;2023-01-15T09:23:31;20.60;48.60
45803;DHT22;31504;51.716;9.184;2023-01-15T09:26:32;20.60;48.60
45803;DHT22;31504;51.716;9.184;2023-01-15T09:29:33;20.70;48.60
45803;DHT22;31504;51.716;9.184;2023-01-15T09:32:34;20.60;48.50
45803;DHT22;31504;51.716;9.184;2023-01-15T09:35:34;20.60;48.40
45803;DHT22;31504;51.716;9.184;2023-01-15T09:38:34;20.50;48.00
45803;DHT22;31504;51.716;9.184;2023-01-15T09:45:09;20.50;46.80
45803;DHT22;31504;51.716;9.184;2023-01-15T09:51:26;20.50;45.90
45803;DHT22;31504;51.716;9.184;2023-01-15T09:54:35;20.60;45.90
45803;DHT22;31504;51.716;9.184;2023-01-15T09:57:39;20.60;45.80
45803;DHT22;31504;51.716;9.184;2023-01-15T10:00:47;20.60;45.80
45803;DHT22;31504;51.716;9.184;2023-01-15T10:03:48;20.70;45.80
45803;DHT22;31504;51.716;9.184;2023-01-15T10:06:55;20.60;45.90
45803;DHT22;31504;51.716;9.184;2023-01-15T10:10:00;20.60;46.00
45803;DHT22;31504;51.716;9.184;2023-01-15T10:13:05;20.60;46.00
45803;DHT22;31504;51.716;9.184;2023-01-15T10:16:08;20.70;46.30
45803;DHT22;31504;51.716;9.184;2023-01-15T10:19:10;20.70;46.30
45803;DHT22;31504;51.716;9.184;2023-01-15T10:22:17;20.70;46.40
45803;DHT22;31504;51.716;9.184;2023-01-15T10:25:21;20.70;46.50
45803;DHT22;31504;51.716;9.184;2023-01-15T10:28:24;20.60;46.50
45803;DHT22;31504;51.716;9.184;2023-01-15T10:35:20;20.60;46.70
45803;DHT22;31504;51.716;9.184;2023-01-15T10:44:33;20.60;47.00
45803;DHT22;31504;51.716;9.184;2023-01-15T10:47:36;20.60;47.10
45803;DHT22;31504;51.716;9.184;2023-01-15T10:50:38;20.60;47.10
45803;DHT22;31504;51.716;9.184;2023-01-15T10:53:56;20.60;47.10
45803;DHT22;31504;51.716;9.184;2023-01-15T10:57:00;20.60;47.10
45803;DHT22;31504;51.716;9.184;2023-01-15T11:00:11;20.70;47.00
45803;DHT22;31504;51.716;9.184;2023-01-15T11:03:12;20.70;47.10
45803;DHT22;31504;51.716;9.184;2023-01-15T11:06:16;20.70;47.10
45803;DHT22;31504;51.716;9.184;2023-01-15T11:09:18;20.70;47.10
45803;DHT22;31504;51.716;9.184;2023-01-15T11:15:43;20.70;47.20
45803;DHT22;31504;51.716;9.184;2023-01-15T11:19:04;20.70;47.10
45803;DHT22;31504;51.716;9.184;2023-01-15T11:22:24;20.60;47.10
45803;DHT22;31504;51.716;9.184;2023-01-15T11:25:29;20.70;47.20
45803;DHT22;31504;51.716;9.184;2023-01-15T11:28:33;20.60;47.20
45803;DHT22;31504;51.716;9.184;2023-01-15T11:31:36;20.60;47.20
45803;DHT22;31504;51.716;9.184;2023-01-15T11:34:37;20.60;47.10
45803;DHT22;31504;51.716;9.184;2023-01-15T11:37:39;20.60;47.10
45803;DHT22;31504;51.716;9.184;2023-01-15T11:40:49;20.60;47.10
45803;DHT22;31504;51.716;9.184;2023-01-15T11:43:56;20.60;47.10
45803;DHT22;31504;51.716;9.184;2023-01-15T11:47:16;20.60;47.10
45803;DHT22;31504;51.716;9.184;2023-01-15T11:50:38;20.60;47.20
45803;DHT22;31504;51.716;9.184;2023-01-15T11:53:43;20.60;47.20
45803;DHT22;31504;51.716;9.184;2023-01-15T11:56:45;20.50;47.10
45803;DHT22;31504;51.716;9.184;2023-01-15T11:59:47;20.50;47.10
45803;DHT22;31504;51.716;9.184;2023-01-15T12:02:48;20.50;47.00
45803;DHT22;31504;51.716;9.184;2023-01-15T12:05:53;20.50;46.90
45803;DHT22;31504;51.716;9.184;2023-01-15T12:08:58;20.50;46.80
45803;DHT22;31504;51.716;9.184;2023-01-15T12:19:00;20.50;46.60
45803;DHT22;31504;51.716;9.184;2023-01-15T12:28:31;20.50;46.40
45803;DHT22;31504;51.716;9.184;2023-01-15T12:31:40;20.40;46.40
45803;DHT22;31504;51.716;9.184;2023-01-15T12:34:48;20.40;46.60
45803;DHT22;31504;51.716;9.184;2023-01-15T12:37:50;20.40;46.40
45803;DHT22;31504;51.716;9.184;2023-01-15T12:41:01;20.40;46.30
45803;DHT22;31504;51.716;9.184;2023-01-15T12:44:04;20.40;46.50
45803;DHT22;31504;51.716;9.184;2023-01-15T12:47:27;20.40;46.40
45803;DHT22;31504;51.716;9.184;2023-01-15T12:50:41;20.40;46.30
45803;DHT22;31504;51.716;9.184;2023-01-15T12:53:49;20.40;46.20
45803;DHT22;31504;51.716;9.184;2023-01-15T12:56:55;20.40;46.10
45803;DHT22;31504;51.716;9.184;2023-01-15T12:59:59;20.40;46.10
45803;DHT22;31504;51.716;9.184;2023-01-15T13:06:04;20.40;46.00
45803;DHT22;31504;51.716;9.184;2023-01-15T13:09:09;20.40;46.00
45803;DHT22;31504;51.716;9.184;2023-01-15T13:12:13;20.50;46.00
45803;DHT22;31504;51.716;9.184;2023-01-15T13:15:15;20.40;45.90
45803;DHT22;31504;51.716;9.184;2023-01-15T13:18:29;20.50;45.90
45803;DHT22;31504;51.716;9.184;2023-01-15T13:21:31;20.40;45.80
45803;DHT22;31504;51.716;9.184;2023-01-15T13:34:02;20.40;45.80
45803;DHT22;31504;51.716;9.184;2023-01-15T13:37:17;20.40;45.90
45803;DHT22;31504;51.716;9.184;2023-01-15T13:46:23;20.40;45.80
45803;DHT22;31504;51.716;9.184;2023-01-15T13:49:26;20.40;45.80
45803;DHT22;31504;51.716;9.184;2023-01-15T13:52:30;20.40;45.70
45803;DHT22;31504;51.716;9.184;2023-01-15T13:55:32;20.40;45.70
45803;DHT22;31504;51.716;9.184;2023-01-15T13:58:34;20.40;45.70
45803;DHT22;31504;51.716;9.184;2023-01-15T14:01:37;20.40;45.60
45803;DHT22;31504;51.716;9.184;2023-01-15T14:04:37;20.40;45.60
45803;DHT22;31504;51.716;9.184;2023-01-15T14:07:37;20.40;45.50
45803;DHT22;31504;51.716;9.184;2023-01-15T14:10:38;20.40;45.50
45803;DHT22;31504;51.716;9.184;2023-01-15T14:13:42;20.40;45.50
45803;DHT22;31504;51.716;9.184;2023-01-15T14:16:50;20.40;46.10
45803;DHT22;31504;51.716;9.184;2023-01-15T14:32:55;20.40;45.50
45803;DHT22;31504;51.716;9.184;2023-01-15T14:35:51;20.40;45.50
45803;DHT22;31504;51.716;9.184;2023-01-15T14:38:58;20.40;45.60
45803;DHT22;31504;51.716;9.184;2023-01-15T14:51:32;20.40;45.40
45803;DHT22;31504;51.716;9.184;2023-01-15T14:54:33;20.40;45.40
45803;DHT22;31504;51.716;9.184;2023-01-15T14:57:36;20.40;45.40
45803;DHT22;31504;51.716;9.184;2023-01-15T15:00:38;20.40;45.40
45803;DHT22;31504;51.716;9.184;2023-01-15T15:03:42;20.40;45.40
45803;DHT22;31504;51.716;9.184;2023-01-15T15:06:46;20.40;45.40
45803;DHT22;31504;51.716;9.184;2023-01-15T15:10:03;20.40;45.40
45803;DHT22;31504;51.716;9.184;2023-01-15T15:16:10;20.40;46.00
45803;DHT22;31504;51.716;9.184;2023-01-15T15:19:21;20.40;45.30
45803;DHT22;31504;51.716;9.184;2023-01-15T15:22:24;20.50;45.30
45803;DHT22;31504;51.716;9.184;2023-01-15T15:25:26;20.40;45.30
45803;DHT22;31504;51.716;9.184;2023-01-15T15:28:28;20.40;45.30
45803;DHT22;31504;51.716;9.184;2023-01-15T15:34:39;20.40;45.30
45803;DHT22;31504;51.716;9.184;2023-01-15T15:37:42;20.50;45.30
45803;DHT22;31504;51.716;9.184;2023-01-15T15:40:44;20.50;45.20
45803;DHT22;31504;51.716;9.184;2023-01-15T15:43:49;20.40;45.20
45803;DHT22;31504;51.716;9.184;2023-01-15T15:47:17;20.50;45.20
45803;DHT22;31504;51.716;9.184;2023-01-15T15:50:36;20.50;45.20
45803;DHT22;31504;51.716;9.184;2023-01-15T15:53:36;20.50;45.20
45803;DHT22;31504;51.716;9.184;2023-01-15T15:56:38;20.50;45.20
45803;DHT22;31504;51.716;9.184;2023-01-15T15:59:47;20.50;45.40
45803;DHT22;31504;51.716;9.184;2023-01-15T16:02:49;20.50;46.10
45803;DHT22;31504;51.716;9.184;2023-01-15T16:05:56;20.50;45.60
45803;DHT22;31504;51.716;9.184;2023-01-15T16:08:57;20.60;45.70
45803;DHT22;31504;51.716;9.184;2023-01-15T16:12:04;20.60;45.80
45803;DHT22;31504;51.716;9.184;2023-01-15T16:15:11;20.60;45.90
45803;DHT22;31504;51.716;9.184;2023-01-15T16:18:15;20.60;46.00
45803;DHT22;31504;51.716;9.184;2023-01-15T16:21:18;20.60;45.90
45803;DHT22;31504;51.716;9.184;2023-01-15T16:24:24;20.60;45.90
45803;DHT22;31504;51.716;9.184;2023-01-15T16:27:26;20.60;46.00
45803;DHT22;31504;51.716;9.184;2023-01-15T16:30:27;20.60;46.00
45803;DHT22;31504;51.716;9.184;2023-01-15T16:33:28;20.60;46.00
45803;DHT22;31504;51.716;9.184;2023-01-15T16:36:36;20.60;46.60
45803;DHT22;31504;51.716;9.184;2023-01-15T16:39:44;20.60;46.00
45803;DHT22;31504;51.716;9.184;2023-01-15T16:42:45;20.60;46.00
45803;DHT22;31504;51.716;9.184;2023-01-15T16:55:54;20.60;46.00
45803;DHT22;31504;51.716;9.184;2023-01-15T16:58:56;20.60;46.10
45803;DHT22;31504;51.716;9.184;2023-01-15T17:02:03;20.60;46.00
45803;DHT22;31504;51.716;9.184;2023-01-15T17:05:12;20.60;45.90
45803;DHT22;31504;51.716;9.184;2023-01-15T17:08:17;20.70;46.00
45803;DHT22;31504;51.716;9.184;2023-01-15T17:11:23;20.60;45.90
45803;DHT22;31504;51.716;9.184;2023-01-15T17:14:25;20.60;45.90
45803;DHT22;31504;51.716;9.184;2023-01-15T17:17:26;20.60;46.00
45803;DHT22;31504;51.716;9.184;2023-01-15T17:20:27;20.60;46.00
45803;DHT22;31504;51.716;9.184;2023-01-15T17:23:32;20.60;46.00
45803;DHT22;31504;51.716;9.184;2023-01-15T17:26:34;20.60;46.60
45803;DHT22;31504;51.716;9.184;2023-01-15T17:29:34;20.60;45.90
45803;DHT22;31504;51.716;9.184;2023-01-15T17:32:35;20.60;45.90
45803;DHT22;31504;51.716;9.184;2023-01-15T17:35:36;20.60;46.00
45803;DHT22;31504;51.716;9.184;2023-01-15T17:38:37;20.60;46.10
45803;DHT22;31504;51.716;9.184;2023-01-15T17:41:38;20.50;46.20
45803;DHT22;31504;51.716;9.184;2023-01-15T17:44:38;20.50;46.30
45803;DHT22;31504;51.716;9.184;2023-01-15T17:47:39;20.50;46.70
45803;DHT22;31504;51.716;9.184;2023-01-15T17:50:39;20.50;46.00
45803;DHT22;31504;51.716;9.184;2023-01-15T17:53:40;20.50;46.00
45803;DHT22;31504;51.716;9.184;2023-01-15T17:56:41;20.50;45.90
45803;DHT22;31504;51.716;9.184;2023-01-15T18:00:00;20.50;45.50
45803;DHT22;31504;51.716;9.184;2023-01-15T18:03:19;20.50;45.40
45803;DHT22;31504;51.716;9.184;2023-01-15T18:06:42;20.50;45.20
45803;DHT22;31504;51.716;9.184;2023-01-15T18:09:44;20.50;45.20
45803;DHT22;31504;51.716;9.184;2023-01-15T18:12:44;20.50;45.20
45803;DHT22;31504;51.716;9.184;2023-01-15T18:15:45;20.50;45.20
45803;DHT22;31504;51.716;9.184;2023-01-15T18:18:46;20.50;45.10
45803;DHT22;31504;51.716;9.184;2023-01-15T18:21:46;20.50;45.10
45803;DHT22;31504;51.716;9.184;2023-01-15T18:24:47;20.50;45.10
45803;DHT22;31504;51.716;9.184;2023-01-15T18:27:47;20.50;45.20
45803;DHT22;31504;51.716;9.184;2023-01-15T18:30:49;20.50;45.20
45803;DHT22;31504;51.716;9.184;2023-01-15T18:33:49;20.50;45.20
45803;DHT22;31504;51.716;9.184;2023-01-15T18:36:50;20.40;45.20
45803;DHT22;31504;51.716;9.184;2023-01-15T18:39:50;20.50;45.20
45803;DHT22;31504;51.716;9.184;2023-01-15T18:42:51;20.50;45.10
45803;DHT22;31504;51.716;9.184;2023-01-15T18:46:10;20.50;45.10
45803;DHT22;31504;51.716;9.184;2023-01-15T18:49:33;20.50;45.00
45803;DHT22;31504;51.716;9.184;2023-01-15T18:52:34;20.50;45.00
45803;DHT22;31504;51.716;9.184;2023-01-15T18:55:50;20.50;45.00
45803;DHT22;31504;51.716;9.184;2023-01-15T18:58:50;20.50;45.00
45803;DHT22;31504;51.716;9.184;2023-01-15T19:01:51;20.50;45.00
45803;DHT22;31504;51.716;9.184;2023-01-15T19:04:51;20.50;45.00
45803;DHT22;31504;51.716;9.184;2023-01-15T19:07:51;20.50;45.00
45803;DHT22;31504;51.716;9.184;2023-01-15T19:10:52;20.50;45.00
45803;DHT22;31504;51.716;9.184;2023-01-15T19:13:52;20.50;44.90
45803;DHT22;31504;51.716;9.184;2023-01-15T19:17:12;20.50;45.00
45803;DHT22;31504;51.716;9.184;2023-01-15T19:20:32;20.50;45.00
45803;DHT22;31504;51.716;9.184;2023-01-15T19:23:32;20.50;45.10
45803;DHT22;31504;51.716;9.184;2023-01-15T19:26:32;20.50;45.10
45803;DHT22;31504;51.716;9.184;2023-01-15T19:29:34;20.50;45.10
45803;DHT22;31504;51.716;9.184;2023-01-15T19:32:34;20.40;45.10
45803;DHT22;31504;51.716;9.184;2023-01-15T19:35:35;20.40;45.10
45803;DHT22;31504;51.716;9.184;2023-01-15T19:38:36;20.40;45.10
45803;DHT22;31504;51.716;9.184;2023-01-15T19:41:39;20.40;45.10
45803;DHT22;31504;51.716;9.184;2023-01-15T19:44:58;20.40;45.10
45803;DHT22;31504;51.716;9.184;2023-01-15T19:48:18;20.50;45.10
45803;DHT22;31504;51.716;9.184;2023-01-15T19:51:37;20.40;45.00
45803;DHT22;31504;51.716;9.184;2023-01-15T19:54:57;20.40;45.00
45803;DHT22;31504;51.716;9.184;2023-01-15T19:58:03;20.40;45.00
45803;DHT22;31504;51.716;9.184;2023-01-15T20:01:04;20.40;44.90
45803;DHT22;31504;51.716;9.184;2023-01-15T20:04:04;20.30;45.00
45803;DHT22;31504;51.716;9.184;2023-01-15T20:07:05;20.30;45.00
45803;DHT22;31504;51.716;9.184;2023-01-15T20:10:06;20.40;44.90
45803;DHT22;31504;51.716;9.184;2023-01-15T20:13:12;20.40;44.80
45803;DHT22;31504;51.716;9.184;2023-01-15T20:16:31;20.40;44.70
45803;DHT22;31504;51.716;9.184;2023-01-15T20:19:32;20.40;44.70
45803;DHT22;31504;51.716;9.184;2023-01-15T20:22:32;20.40;44.60
45803;DHT22;31504;51.716;9.184;2023-01-15T20:25:34;20.40;44.60
45803;DHT22;31504;51.716;9.184;2023-01-15T20:28:36;20.40;44.70
45803;DHT22;31504;51.716;9.184;2023-01-15T20:31:36;20.40;44.60
45803;DHT22;31504;51.716;9.184;2023-01-15T20:34:37;20.40;44.70
45803;DHT22;31504;51.716;9.184;2023-01-15T20:37:38;20.40;44.70
45803;DHT22;31504;51.716;9.184;2023-01-15T20:40:39;20.40;44.70
45803;DHT22;31504;51.716;9.184;2023-01-15T20:43:39;20.30;44.70
45803;DHT22;31504;51.716;9.184;2023-01-15T20:46:58;20.40;44.80
45803;DHT22;31504;51.716;9.184;2023-01-15T20:49:59;20.40;44.80
45803;DHT22;31504;51.716;9.184;2023-01-15T20:52:59;20.30;44.70
45803;DHT22;31504;51.716;9.184;2023-01-15T20:56:00;20.30;44.70
45803;DHT22;31504;51.716;9.184;2023-01-15T20:59:01;20.40;44.70
45803;DHT22;31504;51.716;9.184;2023-01-15T21:02:01;20.40;44.70
45803;DHT22;31504;51.716;9.184;2023-01-15T21:05:02;20.40;44.60
45803;DHT22;31504;51.716;9.184;2023-01-15T21:08:02;20.40;44.60